Etusivu
METAR-TAF:

METAR-TAF

Lentoasemat :

Elmendorfin lentotukikohta

Anchorage Elmendorf, Alaska, Yhdysvallat

Leveyspiiri: 61-15-11N, Pituuspiiri: 149-47-38W, korkeus merenpinnasta: 65 m

Tämänhetkinen sää

Tämä raportti tehtiin 59 minuuttia sitten, kello 07.56 UTC
Tuuli 8 kn lännestä
Lämpötila 13°C
Kosteus 100%
Ilmanpaine 1025 hPa
Näkyvyys: 16.1 km
Muutamia pilviä 3000 ft:n korkeudessa
Muutamia pilviä 25000 ft:n korkeudessa

METAR: PAED 200756Z COR 27008KT 10SM FEW030 FEW250 13/13 A3028 RMK AO2A SLP249 FEW030 N MOV E T01250125 $ COR 0819

Aika: 00:55 (08:55 UTC)

Sääennuste

Tämä raportti tehtiin 5 tuntia ja 55 minuuttia sitten, kello 03.00 UTC
Ennuste voimassa 20. päivästä klo 03 UTC - 21. päivään klo 09 UTC
Tuuli 6 kn eri suunnista
Näkyvyys: 2006 m
Hajanaisia pilviä 3000 ft:n korkeudessa
Hajanaisia pilviä 20000 ft:n korkeudessa

TAF: PAED 200300Z 2003/2109 27009KT 9999 SCT030 SCT200 QNH3022INS WND VRB06KT AFT 2006 TX20/2003Z TN09/2012Z

Säähavainnot ja -ennusteet yli 4000 lentoasemalta (METAR- ja TAF-raportit).

Käytössä olevat sääasemat on merkitty karttaan keltaisilla ja punaisilla pisteillä.

Aseta hiiri pisteen päälle nähdäksesi sääaseman nimen.

Klikkaa sitten nähdäksesi säähavainnot ja -ennusteet.

Kartan vaihtaminen: klikkaa mustalla rastilla varustettuja vihreitä pisteitä, niin voit zoomata sisään; viivalla varustettua vihreää pistettä, niin voit zoomata ulos tai vihreitä nuolia, niin pääset viereisille kartoille.


METAR-TAF: